Time,TemperatureF,DewpointF,PressureIn,WindDirection,WindDirectionDegrees,WindSpeedMPH,WindSpeedGustMPH,Humidity,HourlyPrecipIn,Conditions,Clouds,dailyrainin,SoftwareType,DateUTC
2013-02-12 00:01:00,32.8,32.5,29.62,SE,146,3.0,4.0,99,0.00,,,0.00,LWC V2.10 B1813,2013-02-12 05:01:00,
2013-02-12 00:06:00,32.8,32.5,29.61,SE,142,0.0,1.0,99,0.00,,,0.00,LWC V2.10 B1813,2013-02-12 05:06:00,
2013-02-12 00:11:00,32.8,32.5,29.62,WNW,282,1.0,2.0,99,0.00,,,0.00,LWC V2.10 B1813,2013-02-12 05:11:00,
2013-02-12 00:16:00,32.7,32.5,29.62,WNW,302,0.0,1.0,99,0.00,,,0.00,LWC V2.10 B1813,2013-02-12 05:16:00,
2013-02-12 00:21:00,32.5,32.3,29.62,West,281,0.0,0.0,99,0.00,,,0.00,LWC V2.10 B1813,2013-02-12 05:21:00,
2013-02-12 00:26:00,32.4,32.2,29.62,NW,309,0.0,2.0,99,0.00,,,0.00,LWC V2.10 B1813,2013-02-12 05:26:00,
2013-02-12 00:31:00,32.6,32.3,29.62,West,275,0.0,3.0,99,0.00,,,0.00,LWC V2.10 B1813,2013-02-12 05:31:00,
2013-02-12 00:36:00,33.1,32.8,29.62,North,357,2.0,11.0,99,0.00,,,0.00,LWC V2.10 B1813,2013-02-12 05:36:00,
2013-02-12 00:41:00,33.9,33.6,29.63,WNW,291,5.0,5.0,99,0.00,,,0.00,LWC V2.10 B1813,2013-02-12 05:41:00,
2013-02-12 00:46:00,34.2,33.7,29.62,NNW,346,2.0,5.0,98,0.00,,,0.00,LWC V2.10 B1813,2013-02-12 05:46:00,
2013-02-12 00:51:00,34.5,33.2,29.63,WSW,251,2.0,6.0,95,0.00,,,0.00,LWC V2.10 B1813,2013-02-12 05:51:00,
2013-02-12 00:56:00,34.7,32.9,29.63,NW,309,1.0,3.0,93,0.00,,,0.00,LWC V2.10 B1813,2013-02-12 05:56:00,
2013-02-12 01:01:00,34.7,32.9,29.62,SW,234,3.0,4.0,93,0.00,,,0.00,LWC V2.10 B1813,2013-02-12 06:01:00,
2013-02-12 01:06:00,34.6,33.1,29.62,West,262,0.0,1.0,94,0.00,,,0.00,LWC V2.10 B1813,2013-02-12 06:06:00,
2013-02-12 01:11:00,34.5,33.0,29.63,WNW,291,0.0,5.0,94,0.00,,,0.00,LWC V2.10 B1813,2013-02-12 06:11:00,
2013-02-12 01:16:00,34.2,32.7,29.63,WNW,293,2.0,3.0,94,0.00,,,0.00,LWC V2.10 B1813,2013-02-12 06:16:00,
2013-02-12 01:21:00,34.3,32.8,29.63,West,263,0.0,3.0,94,0.00,,,0.00,LWC V2.10 B1813,2013-02-12 06:21:00,
2013-02-12 01:26:00,34.1,32.6,29.63,SW,219,2.0,4.0,94,0.00,,,0.00,LWC V2.10 B1813,2013-02-12 06:26:00,
2013-02-12 01:31:00,34.2,32.7,29.62,West,260,2.0,5.0,94,0.00,,,0.00,LWC V2.10 B1813,2013-02-12 06:31:00,
2013-02-12 01:36:00,34.2,32.7,29.62,WNW,291,2.0,3.0,94,0.00,,,0.00,LWC V2.10 B1813,2013-02-12 06:36:00,
2013-02-12 01:41:00,34.1,32.3,29.62,NW,308,7.0,7.0,93,0.00,,,0.00,LWC V2.10 B1813,2013-02-12 06:41:00,
2013-02-12 01:46:00,34.3,32.2,29.62,WSW,253,2.0,3.0,92,0.00,,,0.00,LWC V2.10 B1813,2013-02-12 06:46:00,
2013-02-12 01:51:00,34.1,32.3,29.62,WSW,258,0.0,1.0,93,0.00,,,0.00,LWC V2.10 B1813,2013-02-12 06:51:00,
2013-02-12 01:56:00,34.2,32.1,29.62,SSW,207,0.0,0.0,92,0.00,,,0.00,LWC V2.10 B1813,2013-02-12 06:56:00,
2013-02-12 02:01:00,33.9,32.1,29.62,SSW,207,0.0,1.0,93,0.00,,,0.00,LWC V2.10 B1813,2013-02-12 07:01:00,
2013-02-12 02:06:00,33.5,32.0,29.62,ESE,119,0.0,1.0,94,0.00,,,0.00,LWC V2.10 B1813,2013-02-12 07:06:00,
2013-02-12 02:11:00,33.5,32.0,29.63,NW,317,0.0,3.0,94,0.00,,,0.00,LWC V2.10 B1813,2013-02-12 07:11:00,
2013-02-12 02:16:00,33.3,31.8,29.63,SSE,163,4.0,4.0,94,0.00,,,0.00,LWC V2.10 B1813,2013-02-12 07:16:00,
2013-02-12 02:21:00,33.4,31.9,29.63,South,175,2.0,2.0,94,0.00,,,0.00,LWC V2.10 B1813,2013-02-12 07:21:00,
2013-02-12 02:26:00,33.3,32.0,29.63,West,272,0.0,2.0,95,0.00,,,0.00,LWC V2.10 B1813,2013-02-12 07:26:00,
2013-02-12 02:31:00,33.2,31.9,29.63,SW,227,1.0,2.0,95,0.00,,,0.00,LWC V2.10 B1813,2013-02-12 07:31:00,
2013-02-12 02:36:00,33.3,32.0,29.63,SSW,198,1.0,1.0,95,0.00,,,0.00,LWC V2.10 B1813,2013-02-12 07:36:00,
2013-02-12 02:41:00,33.3,32.0,29.63,SW,230,2.0,2.0,95,0.00,,,0.00,LWC V2.10 B1813,2013-02-12 07:41:00,
2013-02-12 02:46:00,33.4,32.1,29.63,SSE,154,3.0,4.0,95,0.00,,,0.00,LWC V2.10 B1813,2013-02-12 07:46:00,
2013-02-12 02:51:00,33.7,32.2,29.63,WSW,249,0.0,2.0,94,0.00,,,0.00,LWC V2.10 B1813,2013-02-12 07:51:00,
2013-02-12 02:56:00,33.5,32.0,29.63,West,259,1.0,2.0,94,0.00,,,0.00,LWC V2.10 B1813,2013-02-12 07:56:00,
2013-02-12 03:01:00,33.3,32.0,29.63,WNW,300,0.0,0.0,95,0.00,,,0.00,LWC V2.10 B1813,2013-02-12 08:01:00,
2013-02-12 03:06:00,33.1,31.8,29.63,WSW,251,0.0,1.0,95,0.00,,,0.00,LWC V2.10 B1813,2013-02-12 08:06:00,
2013-02-12 03:11:00,32.9,31.9,29.63,WNW,282,0.0,0.0,96,0.00,,,0.00,LWC V2.10 B1813,2013-02-12 08:11:00,
2013-02-12 03:16:00,32.8,31.8,29.62,WNW,291,1.0,2.0,96,0.00,,,0.00,LWC V2.10 B1813,2013-02-12 08:16:00,
2013-02-12 03:21:00,32.8,31.8,29.63,West,265,0.0,2.0,96,0.00,,,0.00,LWC V2.10 B1813,2013-02-12 08:21:00,
2013-02-12 03:26:00,32.8,31.8,29.62,NW,324,0.0,1.0,96,0.00,,,0.00,LWC V2.10 B1813,2013-02-12 08:26:00,
2013-02-12 03:31:00,32.8,31.8,29.62,WNW,286,3.0,3.0,96,0.00,,,0.00,LWC V2.10 B1813,2013-02-12 08:31:00,
2013-02-12 03:36:00,33.1,31.8,29.62,WSW,255,1.0,4.0,95,0.00,,,0.00,LWC V2.10 B1813,2013-02-12 08:36:00,
2013-02-12 03:41:00,33.7,31.6,29.63,WSW,245,2.0,3.0,92,0.00,,,0.00,LWC V2.10 B1813,2013-02-12 08:41:00,
2013-02-12 03:46:00,33.5,31.7,29.63,SW,227,0.0,0.0,93,0.00,,,0.00,LWC V2.10 B1813,2013-02-12 08:46:00,
2013-02-12 03:51:00,33.4,31.6,29.63,South,172,0.0,0.0,93,0.00,,,0.00,LWC V2.10 B1813,2013-02-12 08:51:00,
2013-02-12 03:56:00,33.2,31.7,29.63,South,172,0.0,0.0,94,0.00,,,0.00,LWC V2.10 B1813,2013-02-12 08:56:00,
2013-02-12 04:01:00,33.1,31.8,29.63,SW,218,0.0,3.0,95,0.00,,,0.00,LWC V2.10 B1813,2013-02-12 09:01:00,
2013-02-12 04:06:00,33.6,31.5,29.63,West,273,0.0,2.0,92,0.00,,,0.00,LWC V2.10 B1813,2013-02-12 09:06:00,
2013-02-12 04:11:00,34.0,31.4,29.63,West,279,0.0,1.0,90,0.00,,,0.00,LWC V2.10 B1813,2013-02-12 09:11:00,
2013-02-12 04:16:00,33.9,31.6,29.63,West,259,0.0,1.0,91,0.00,,,0.00,LWC V2.10 B1813,2013-02-12 09:16:00,
2013-02-12 04:21:00,33.8,31.5,29.63,WNW,284,0.0,0.0,91,0.00,,,0.00,LWC V2.10 B1813,2013-02-12 09:21:00,
2013-02-12 04:26:00,34.2,31.0,29.63,WSW,241,0.0,3.0,88,0.00,,,0.00,LWC V2.10 B1813,2013-02-12 09:26:00,
2013-02-12 04:31:00,34.4,31.2,29.64,WNW,289,1.0,1.0,88,0.00,,,0.00,LWC V2.10 B1813,2013-02-12 09:31:00,
2013-02-12 04:36:00,34.3,31.1,29.64,SSW,203,1.0,2.0,88,0.00,,,0.00,LWC V2.10 B1813,2013-02-12 09:36:00,
2013-02-12 04:41:00,34.1,31.2,29.64,West,259,0.0,5.0,89,0.00,,,0.00,LWC V2.10 B1813,2013-02-12 09:41:00,
2013-02-12 04:46:00,34.5,30.8,29.64,WNW,284,3.0,6.0,86,0.00,,,0.00,LWC V2.10 B1813,2013-02-12 09:46:00,
2013-02-12 04:51:00,34.7,31.2,29.64,WNW,282,0.0,1.0,87,0.00,,,0.00,LWC V2.10 B1813,2013-02-12 09:51:00,
2013-02-12 04:56:00,34.4,31.2,29.64,West,272,0.0,0.0,88,0.00,,,0.00,LWC V2.10 B1813,2013-02-12 09:56:00,
2013-02-12 05:01:00,34.4,30.9,29.63,WNW,298,0.0,5.0,87,0.00,,,0.00,LWC V2.10 B1813,2013-02-12 10:01:00,
2013-02-12 05:06:00,34.3,31.1,29.63,SSW,194,0.0,0.0,88,0.00,,,0.00,LWC V2.10 B1813,2013-02-12 10:06:00,
2013-02-12 05:11:00,34.3,30.3,29.63,WNW,286,3.0,7.0,85,0.00,,,0.00,LWC V2.10 B1813,2013-02-12 10:11:00,
2013-02-12 05:16:00,34.5,31.3,29.63,SW,217,1.0,2.0,88,0.00,,,0.01,LWC V2.10 B1813,2013-02-12 10:16:00,
2013-02-12 05:21:00,34.6,30.6,29.63,SW,214,0.0,4.0,85,0.00,,,0.01,LWC V2.10 B1813,2013-02-12 10:21:00,
2013-02-12 05:26:00,34.9,30.6,29.63,SE,145,1.0,1.0,84,0.00,,,0.01,LWC V2.10 B1813,2013-02-12 10:26:00,
2013-02-12 05:31:00,34.8,30.8,29.63,West,262,0.0,2.0,85,0.00,,,0.01,LWC V2.10 B1813,2013-02-12 10:31:00,
2013-02-12 05:36:00,34.8,30.5,29.63,WSW,237,0.0,6.0,84,0.00,,,0.01,LWC V2.10 B1813,2013-02-12 10:36:00,
2013-02-12 05:41:00,34.9,30.0,29.63,North,356,1.0,6.0,82,0.00,,,0.01,LWC V2.10 B1813,2013-02-12 10:41:00,
2013-02-12 05:46:00,35.0,30.4,29.63,NW,314,1.0,2.0,83,0.00,,,0.01,LWC V2.10 B1813,2013-02-12 10:46:00,
2013-02-12 05:51:00,34.9,30.3,29.64,NNW,336,0.0,3.0,83,0.00,,,0.01,LWC V2.10 B1813,2013-02-12 10:51:00,
2013-02-12 05:56:00,35.1,30.2,29.64,West,280,4.0,4.0,82,0.00,,,0.01,LWC V2.10 B1813,2013-02-12 10:56:00,
2013-02-12 06:01:00,35.3,30.1,29.64,NW,308,2.0,8.0,81,0.00,,,0.01,LWC V2.10 B1813,2013-02-12 11:01:00,
2013-02-12 06:06:00,34.9,30.6,29.64,SSE,156,1.0,2.0,84,0.00,,,0.01,LWC V2.10 B1813,2013-02-12 11:06:00,
2013-02-12 06:11:00,35.1,30.2,29.64,West,268,3.0,9.0,82,0.00,,,0.01,LWC V2.10 B1813,2013-02-12 11:11:00,
2013-02-12 06:16:00,35.2,30.6,29.64,WSW,238,1.0,2.0,83,0.00,,,0.01,LWC V2.10 B1813,2013-02-12 11:16:00,
2013-02-12 06:21:00,35.1,30.2,29.65,NNW,334,2.0,3.0,82,0.00,,,0.01,LWC V2.10 B1813,2013-02-12 11:21:00,
2013-02-12 06:26:00,35.2,29.7,29.64,SW,234,1.0,7.0,80,0.00,,,0.01,LWC V2.10 B1813,2013-02-12 11:26:00,
2013-02-12 06:31:00,35.2,30.0,29.65,WNW,288,2.0,4.0,81,0.00,,,0.01,LWC V2.10 B1813,2013-02-12 11:31:00,
2013-02-12 06:36:00,35.3,29.5,29.65,NW,305,5.0,11.0,79,0.00,,,0.01,LWC V2.10 B1813,2013-02-12 11:36:00,
2013-02-12 06:41:00,35.4,29.9,29.64,WNW,286,4.0,6.0,80,0.00,,,0.01,LWC V2.10 B1813,2013-02-12 11:41:00,
2013-02-12 06:46:00,35.7,29.5,29.64,WNW,282,10.0,12.0,78,0.00,,,0.01,LWC V2.10 B1813,2013-02-12 11:46:00,
2013-02-12 06:51:00,35.7,29.8,29.64,WNW,291,2.0,8.0,79,0.00,,,0.01,LWC V2.10 B1813,2013-02-12 11:51:00,
2013-02-12 06:56:00,35.7,29.8,29.64,NW,311,7.0,12.0,79,0.00,,,0.01,LWC V2.10 B1813,2013-02-12 11:56:00,
2013-02-12 07:01:00,35.7,29.5,29.64,WNW,287,6.0,13.0,78,0.00,,,0.01,LWC V2.10 B1813,2013-02-12 12:01:00,
2013-02-12 07:06:00,35.6,29.7,29.64,North,10,9.0,9.0,79,0.00,,,0.01,LWC V2.10 B1813,2013-02-12 12:06:00,
2013-02-12 07:11:00,35.7,29.8,29.64,West,270,5.0,10.0,79,0.00,,,0.01,LWC V2.10 B1813,2013-02-12 12:11:00,
2013-02-12 07:16:00,35.8,29.3,29.64,North,350,3.0,7.0,77,0.00,,,0.01,LWC V2.10 B1813,2013-02-12 12:16:00,
2013-02-12 07:21:00,35.6,29.7,29.64,NNW,343,3.0,5.0,79,0.00,,,0.01,LWC V2.10 B1813,2013-02-12 12:21:00,
2013-02-12 07:26:00,35.6,29.4,29.64,North,354,4.0,8.0,78,0.00,,,0.01,LWC V2.10 B1813,2013-02-12 12:26:00,
2013-02-12 07:31:00,35.6,29.4,29.64,NE,35,6.0,10.0,78,0.00,,,0.01,LWC V2.10 B1813,2013-02-12 12:31:00,
2013-02-12 07:36:00,35.8,29.6,29.64,NW,305,2.0,5.0,78,0.00,,,0.01,LWC V2.10 B1813,2013-02-12 12:36:00,
2013-02-12 07:41:00,35.9,29.4,29.65,NW,311,2.0,9.0,77,0.00,,,0.01,LWC V2.10 B1813,2013-02-12 12:41:00,
2013-02-12 07:46:00,35.9,29.7,29.65,West,269,6.0,9.0,78,0.00,,,0.01,LWC V2.10 B1813,2013-02-12 12:46:00,
2013-02-12 07:51:00,36.1,29.3,29.65,NW,309,8.0,12.0,76,0.00,,,0.01,LWC V2.10 B1813,2013-02-12 12:51:00,
2013-02-12 07:56:00,36.2,29.4,29.65,West,262,11.0,11.0,76,0.00,,,0.01,LWC V2.10 B1813,2013-02-12 12:56:00,
2013-02-12 08:01:00,36.4,29.2,29.65,North,352,4.0,6.0,75,0.00,,,0.01,LWC V2.10 B1813,2013-02-12 13:01:00,
2013-02-12 08:06:00,36.4,29.2,29.65,NNW,330,6.0,10.0,75,0.00,,,0.01,LWC V2.10 B1813,2013-02-12 13:06:00,
2013-02-12 08:11:00,36.5,29.0,29.65,North,11,8.0,9.0,74,0.00,,,0.01,LWC V2.10 B1813,2013-02-12 13:11:00,
2013-02-12 08:16:00,36.7,29.5,29.65,NNW,348,1.0,10.0,75,0.00,,,0.02,LWC V2.10 B1813,2013-02-12 13:16:00,
2013-02-12 08:21:00,36.6,29.1,29.65,WNW,294,7.0,10.0,74,0.00,,,0.02,LWC V2.10 B1813,2013-02-12 13:21:00,
2013-02-12 08:26:00,37.1,28.9,29.65,WNW,293,6.0,10.0,72,0.00,,,0.02,LWC V2.10 B1813,2013-02-12 13:26:00,
2013-02-12 08:36:00,37.6,29.4,29.64,NW,311,9.0,13.0,72,0.00,,,0.02,LWC V2.10 B1813,2013-02-12 13:36:00,
2013-02-12 08:41:00,37.9,29.7,29.64,NW,315,8.0,9.0,72,0.00,,,0.02,LWC V2.10 B1813,2013-02-12 13:41:00,
2013-02-12 08:46:00,38.1,28.8,29.65,West,266,8.0,16.0,69,0.00,,,0.02,LWC V2.10 B1813,2013-02-12 13:46:00,
2013-02-12 08:51:00,38.5,29.2,29.65,NW,309,7.0,10.0,69,0.00,,,0.02,LWC V2.10 B1813,2013-02-12 13:51:00,
2013-02-12 09:01:00,39.0,29.3,29.65,NE,47,2.0,15.0,68,0.00,,,0.03,LWC V2.10 B1813,2013-02-12 14:01:00,
2013-02-12 09:06:00,39.1,30.2,29.66,ENE,66,2.0,3.0,70,0.00,,,0.03,LWC V2.10 B1813,2013-02-12 14:06:00,
2013-02-12 09:11:00,38.9,28.5,29.66,NW,325,3.0,12.0,66,0.04,,,0.04,LWC V2.10 B1813,2013-02-12 14:11:00,
2013-02-12 09:16:00,38.9,28.9,29.66,NW,304,8.0,11.0,67,0.04,,,0.04,LWC V2.10 B1813,2013-02-12 14:16:00,
2013-02-12 09:21:00,38.9,29.6,29.66,SSW,201,5.0,7.0,69,0.05,,,0.05,LWC V2.10 B1813,2013-02-12 14:21:00,
2013-02-12 09:26:00,38.8,28.8,29.66,NW,315,2.0,11.0,67,0.05,,,0.05,LWC V2.10 B1813,2013-02-12 14:26:00,
2013-02-12 09:31:00,38.7,29.4,29.67,NW,304,2.0,10.0,69,0.05,,,0.05,LWC V2.10 B1813,2013-02-12 14:31:00,
2013-02-12 09:36:00,38.4,28.8,29.67,South,179,7.0,13.0,68,0.05,,,0.06,LWC V2.10 B1813,2013-02-12 14:36:00,
2013-02-12 09:41:00,38.2,28.9,29.67,NE,43,4.0,6.0,69,0.05,,,0.06,LWC V2.10 B1813,2013-02-12 14:41:00,
2013-02-12 09:46:00,38.1,28.8,29.67,WSW,244,4.0,8.0,69,0.04,,,0.06,LWC V2.10 B1813,2013-02-12 14:46:00,
2013-02-12 09:51:00,38.0,29.4,29.67,WNW,294,2.0,5.0,71,0.00,,,0.06,LWC V2.10 B1813,2013-02-12 14:51:00,
2013-02-12 09:56:00,38.0,28.7,29.66,WNW,286,10.0,11.0,69,0.00,,,0.06,LWC V2.10 B1813,2013-02-12 14:56:00,
2013-02-12 10:01:00,38.0,28.7,29.66,NNW,327,5.0,15.0,69,0.00,,,0.07,LWC V2.10 B1813,2013-02-12 15:01:00,
2013-02-12 10:06:00,38.3,29.0,29.66,NW,311,7.0,10.0,69,0.00,,,0.07,LWC V2.10 B1813,2013-02-12 15:06:00,
2013-02-12 10:11:00,38.4,28.8,29.67,NW,318,6.0,8.0,68,0.00,,,0.07,LWC V2.10 B1813,2013-02-12 15:11:00,
2013-02-12 10:16:00,38.4,28.8,29.67,NW,308,6.0,11.0,68,0.00,,,0.08,LWC V2.10 B1813,2013-02-12 15:16:00,
2013-02-12 10:21:00,38.6,28.6,29.67,NNW,343,4.0,10.0,67,0.00,,,0.08,LWC V2.10 B1813,2013-02-12 15:21:00,
2013-02-12 10:26:00,38.6,28.6,29.67,WNW,300,7.0,12.0,67,0.00,,,0.08,LWC V2.10 B1813,2013-02-12 15:26:00,
2013-02-12 10:31:00,38.7,29.1,29.67,WNW,303,7.0,8.0,68,0.04,,,0.08,LWC V2.10 B1813,2013-02-12 15:31:00,
2013-02-12 10:36:00,39.0,29.0,29.67,WSW,256,7.0,13.0,67,0.04,,,0.09,LWC V2.10 B1813,2013-02-12 15:36:00,
2013-02-12 10:41:00,39.1,29.4,29.67,NNW,343,3.0,10.0,68,0.04,,,0.09,LWC V2.10 B1813,2013-02-12 15:41:00,
2013-02-12 10:46:00,38.9,29.6,29.67,NNW,341,3.0,3.0,69,0.04,,,0.09,LWC V2.10 B1813,2013-02-12 15:46:00,
2013-02-12 10:51:00,38.8,29.2,29.67,NW,311,3.0,4.0,68,0.00,,,0.10,LWC V2.10 B1813,2013-02-12 15:51:00,
2013-02-12 10:56:00,38.6,29.3,29.68,NW,314,8.0,8.0,69,0.00,,,0.10,LWC V2.10 B1813,2013-02-12 15:56:00,
2013-02-12 11:01:00,38.4,29.5,29.68,NW,318,1.0,13.0,70,0.00,,,0.10,LWC V2.10 B1813,2013-02-12 16:01:00,
2013-02-12 11:06:00,38.4,29.1,29.68,NNW,347,8.0,14.0,69,0.00,,,0.10,LWC V2.10 B1813,2013-02-12 16:06:00,
2013-02-12 11:11:00,38.5,29.2,29.68,NE,54,2.0,13.0,69,0.00,,,0.10,LWC V2.10 B1813,2013-02-12 16:11:00,
2013-02-12 11:16:00,38.5,29.2,29.68,West,275,9.0,12.0,69,0.00,,,0.10,LWC V2.10 B1813,2013-02-12 16:16:00,
2013-02-12 11:21:00,38.6,29.3,29.68,NNW,343,4.0,9.0,69,0.00,,,0.10,LWC V2.10 B1813,2013-02-12 16:21:00,
2013-02-12 11:26:00,38.7,29.1,29.68,North,0,7.0,13.0,68,0.00,,,0.10,LWC V2.10 B1813,2013-02-12 16:26:00,
2013-02-12 11:31:00,38.7,29.1,29.68,NNW,329,8.0,12.0,68,0.00,,,0.10,LWC V2.10 B1813,2013-02-12 16:31:00,
2013-02-12 11:36:00,38.7,29.4,29.68,WNW,294,8.0,8.0,69,0.00,,,0.10,LWC V2.10 B1813,2013-02-12 16:36:00,
2013-02-12 11:41:00,38.7,29.1,29.67,WSW,244,6.0,9.0,68,0.00,,,0.11,LWC V2.10 B1813,2013-02-12 16:41:00,
2013-02-12 11:46:00,38.7,29.1,29.67,NNE,31,3.0,8.0,68,0.00,,,0.11,LWC V2.10 B1813,2013-02-12 16:46:00,
2013-02-12 11:51:00,38.8,29.2,29.67,WNW,294,6.0,16.0,68,0.00,,,0.11,LWC V2.10 B1813,2013-02-12 16:51:00,
2013-02-12 11:56:00,38.9,29.6,29.66,North,358,2.0,10.0,69,0.00,,,0.11,LWC V2.10 B1813,2013-02-12 16:56:00,
2013-02-12 12:01:00,39.1,29.4,29.67,West,269,5.0,12.0,68,0.00,,,0.12,LWC V2.10 B1813,2013-02-12 17:01:00,
2013-02-12 12:06:00,39.2,29.5,29.67,WNW,289,3.0,9.0,68,0.00,,,0.12,LWC V2.10 B1813,2013-02-12 17:06:00,
2013-02-12 12:11:00,39.2,29.5,29.67,WNW,299,3.0,8.0,68,0.00,,,0.12,LWC V2.10 B1813,2013-02-12 17:11:00,
2013-02-12 12:16:00,39.3,29.6,29.67,NW,311,4.0,13.0,68,0.00,,,0.12,LWC V2.10 B1813,2013-02-12 17:16:00,
2013-02-12 12:21:00,39.4,29.4,29.67,NW,315,6.0,9.0,67,0.00,,,0.12,LWC V2.10 B1813,2013-02-12 17:21:00,
2013-02-12 12:26:00,39.7,29.7,29.67,WSW,258,9.0,10.0,67,0.00,,,0.13,LWC V2.10 B1813,2013-02-12 17:26:00,
2013-02-12 12:31:00,40.0,29.9,29.67,NW,304,7.0,8.0,67,0.00,,,0.13,LWC V2.10 B1813,2013-02-12 17:31:00,
2013-02-12 12:36:00,40.1,29.3,29.67,NW,325,8.0,11.0,65,0.00,,,0.13,LWC V2.10 B1813,2013-02-12 17:36:00,
2013-02-12 12:41:00,40.0,29.6,29.68,North,4,4.0,6.0,66,0.00,,,0.13,LWC V2.10 B1813,2013-02-12 17:41:00,
2013-02-12 12:46:00,39.9,29.5,29.68,NW,313,6.0,11.0,66,0.00,,,0.13,LWC V2.10 B1813,2013-02-12 17:46:00,
2013-02-12 12:51:00,39.7,29.3,29.68,North,349,2.0,11.0,66,0.00,,,0.13,LWC V2.10 B1813,2013-02-12 17:51:00,
2013-02-12 12:56:00,39.6,29.6,29.68,NW,325,1.0,7.0,67,0.00,,,0.13,LWC V2.10 B1813,2013-02-12 17:56:00,
2013-02-12 13:01:00,39.4,30.1,29.68,West,275,3.0,6.0,69,0.00,,,0.13,LWC V2.10 B1813,2013-02-12 18:01:00,
2013-02-12 13:06:00,39.2,29.9,29.68,WNW,286,4.0,6.0,69,0.00,,,0.13,LWC V2.10 B1813,2013-02-12 18:06:00,
2013-02-12 13:11:00,39.3,29.6,29.68,West,279,11.0,15.0,68,0.00,,,0.14,LWC V2.10 B1813,2013-02-12 18:11:00,
2013-02-12 13:16:00,39.1,29.4,29.68,NW,313,2.0,10.0,68,0.00,,,0.14,LWC V2.10 B1813,2013-02-12 18:16:00,
2013-02-12 13:21:00,39.1,29.8,29.68,NNE,13,4.0,6.0,69,0.00,,,0.14,LWC V2.10 B1813,2013-02-12 18:21:00,
2013-02-12 13:26:00,39.0,29.7,29.68,NW,315,3.0,11.0,69,0.00,,,0.14,LWC V2.10 B1813,2013-02-12 18:26:00,
2013-02-12 13:31:00,38.9,29.6,29.69,NW,304,4.0,11.0,69,0.00,,,0.14,LWC V2.10 B1813,2013-02-12 18:31:00,
2013-02-12 13:36:00,38.8,29.5,29.69,NW,304,1.0,8.0,69,0.00,,,0.14,LWC V2.10 B1813,2013-02-12 18:36:00,
2013-02-12 13:41:00,38.8,29.9,29.69,NW,316,7.0,12.0,70,0.00,,,0.14,LWC V2.10 B1813,2013-02-12 18:41:00,
2013-02-12 13:46:00,38.7,29.8,29.69,NW,309,1.0,9.0,70,0.00,,,0.14,LWC V2.10 B1813,2013-02-12 18:46:00,
2013-02-12 13:51:00,38.7,29.8,29.69,WNW,289,12.0,12.0,70,0.00,,,0.14,LWC V2.10 B1813,2013-02-12 18:51:00,
2013-02-12 13:56:00,38.7,29.8,29.69,WSW,251,6.0,9.0,70,0.00,,,0.14,LWC V2.10 B1813,2013-02-12 18:56:00,
2013-02-12 14:01:00,38.7,29.8,29.69,NW,304,9.0,12.0,70,0.00,,,0.14,LWC V2.10 B1813,2013-02-12 19:01:00,
2013-02-12 14:06:00,38.8,29.9,29.69,North,350,3.0,8.0,70,0.00,,,0.14,LWC V2.10 B1813,2013-02-12 19:06:00,
2013-02-12 14:11:00,38.9,30.0,29.69,NNW,343,3.0,9.0,70,0.00,,,0.14,LWC V2.10 B1813,2013-02-12 19:11:00,
2013-02-12 14:16:00,39.0,30.1,29.70,NW,311,2.0,8.0,70,0.00,,,0.14,LWC V2.10 B1813,2013-02-12 19:16:00,
2013-02-12 14:21:00,39.1,30.2,29.70,NW,317,4.0,9.0,70,0.00,,,0.14,LWC V2.10 B1813,2013-02-12 19:21:00,
2013-02-12 14:26:00,39.1,30.2,29.69,NE,53,5.0,5.0,70,0.00,,,0.14,LWC V2.10 B1813,2013-02-12 19:26:00,
2013-02-12 14:31:00,39.1,30.5,29.70,WNW,284,7.0,7.0,71,0.00,,,0.14,LWC V2.10 B1813,2013-02-12 19:31:00,
2013-02-12 14:36:00,39.0,30.1,29.70,West,274,5.0,8.0,70,0.00,,,0.14,LWC V2.10 B1813,2013-02-12 19:36:00,
2013-02-12 14:41:00,39.1,30.2,29.70,NW,320,2.0,7.0,70,0.00,,,0.14,LWC V2.10 B1813,2013-02-12 19:41:00,
2013-02-12 14:46:00,39.0,30.1,29.70,NNW,328,4.0,8.0,70,0.00,,,0.14,LWC V2.10 B1813,2013-02-12 19:46:00,
2013-02-12 14:51:00,39.0,30.1,29.71,NE,39,4.0,11.0,70,0.00,,,0.14,LWC V2.10 B1813,2013-02-12 19:51:00,
2013-02-12 14:56:00,39.0,30.1,29.71,NNW,328,5.0,6.0,70,0.00,,,0.14,LWC V2.10 B1813,2013-02-12 19:56:00,
2013-02-12 15:01:00,38.9,30.0,29.72,NW,308,6.0,9.0,70,0.00,,,0.14,LWC V2.10 B1813,2013-02-12 20:01:00,
2013-02-12 15:06:00,38.9,30.0,29.72,NW,322,6.0,7.0,70,0.00,,,0.14,LWC V2.10 B1813,2013-02-12 20:06:00,
2013-02-12 15:11:00,38.9,30.0,29.72,SW,215,1.0,2.0,70,0.00,,,0.14,LWC V2.10 B1813,2013-02-12 20:11:00,
2013-02-12 15:16:00,38.9,30.0,29.72,ESE,111,2.0,4.0,70,0.00,,,0.14,LWC V2.10 B1813,2013-02-12 20:16:00,
2013-02-12 15:21:00,38.8,29.9,29.72,WSW,251,6.0,8.0,70,0.00,,,0.14,LWC V2.10 B1813,2013-02-12 20:21:00,
2013-02-12 15:26:00,38.7,30.1,29.72,WSW,241,0.0,9.0,71,0.00,,,0.14,LWC V2.10 B1813,2013-02-12 20:26:00,
2013-02-12 15:31:00,38.6,30.0,29.72,WSW,237,2.0,4.0,71,0.00,,,0.14,LWC V2.10 B1813,2013-02-12 20:31:00,
2013-02-12 15:36:00,38.5,29.6,29.73,SW,214,3.0,7.0,70,0.00,,,0.14,LWC V2.10 B1813,2013-02-12 20:36:00,
2013-02-12 15:41:00,38.5,29.6,29.72,NNW,328,2.0,4.0,70,0.00,,,0.14,LWC V2.10 B1813,2013-02-12 20:41:00,
2013-02-12 15:46:00,38.5,29.9,29.72,North,1,3.0,4.0,71,0.00,,,0.14,LWC V2.10 B1813,2013-02-12 20:46:00,
2013-02-12 15:51:00,38.4,30.2,29.72,WNW,298,0.0,2.0,72,0.00,,,0.14,LWC V2.10 B1813,2013-02-12 20:51:00,
2013-02-12 15:56:00,38.3,30.1,29.72,WNW,283,2.0,4.0,72,0.00,,,0.14,LWC V2.10 B1813,2013-02-12 20:56:00,
2013-02-12 16:01:00,38.1,29.9,29.72,WSW,256,3.0,7.0,72,0.00,,,0.14,LWC V2.10 B1813,2013-02-12 21:01:00,
2013-02-12 16:06:00,38.0,30.1,29.72,North,350,0.0,3.0,73,0.00,,,0.14,LWC V2.10 B1813,2013-02-12 21:06:00,
2013-02-12 16:11:00,37.9,29.7,29.72,NE,56,2.0,8.0,72,0.00,,,0.14,LWC V2.10 B1813,2013-02-12 21:11:00,
2013-02-12 16:16:00,37.9,29.7,29.72,West,281,3.0,10.0,72,0.00,,,0.14,LWC V2.10 B1813,2013-02-12 21:16:00,
2013-02-12 16:21:00,38.0,29.8,29.71,NNE,16,6.0,8.0,72,0.00,,,0.14,LWC V2.10 B1813,2013-02-12 21:21:00,
2013-02-12 16:26:00,38.0,29.8,29.71,SE,140,3.0,3.0,72,0.00,,,0.14,LWC V2.10 B1813,2013-02-12 21:26:00,
2013-02-12 16:31:00,37.9,29.7,29.72,SW,234,2.0,5.0,72,0.00,,,0.14,LWC V2.10 B1813,2013-02-12 21:31:00,
2013-02-12 16:36:00,37.9,29.7,29.73,SSW,195,2.0,6.0,72,0.00,,,0.14,LWC V2.10 B1813,2013-02-12 21:36:00,
2013-02-12 16:41:00,37.8,29.6,29.73,NW,324,1.0,3.0,72,0.00,,,0.14,LWC V2.10 B1813,2013-02-12 21:41:00,
2013-02-12 16:46:00,37.7,29.5,29.73,WSW,252,1.0,4.0,72,0.00,,,0.14,LWC V2.10 B1813,2013-02-12 21:46:00,
2013-02-12 16:51:00,37.5,29.6,29.73,NW,313,7.0,7.0,73,0.00,,,0.14,LWC V2.10 B1813,2013-02-12 21:51:00,
2013-02-12 16:56:00,37.3,29.5,29.73,NW,321,2.0,13.0,73,0.00,,,0.14,LWC V2.10 B1813,2013-02-12 21:56:00,
2013-02-12 17:01:00,37.3,29.5,29.73,WNW,286,3.0,7.0,73,0.00,,,0.14,LWC V2.10 B1813,2013-02-12 22:01:00,
2013-02-12 17:06:00,37.1,29.3,29.72,NNW,339,3.0,6.0,73,0.00,,,0.14,LWC V2.10 B1813,2013-02-12 22:06:00,
2013-02-12 17:11:00,37.0,29.2,29.72,NW,313,5.0,12.0,73,0.00,,,0.14,LWC V2.10 B1813,2013-02-12 22:11:00,
2013-02-12 17:16:00,36.9,29.1,29.72,South,185,4.0,11.0,73,0.00,,,0.14,LWC V2.10 B1813,2013-02-12 22:16:00,
2013-02-12 17:21:00,36.8,29.0,29.72,SW,234,5.0,8.0,73,0.00,,,0.14,LWC V2.10 B1813,2013-02-12 22:21:00,
2013-02-12 17:26:00,36.8,29.3,29.73,North,7,0.0,5.0,74,0.00,,,0.14,LWC V2.10 B1813,2013-02-12 22:26:00,
2013-02-12 17:31:00,36.7,29.2,29.73,WNW,283,3.0,5.0,74,0.00,,,0.14,LWC V2.10 B1813,2013-02-12 22:31:00,
2013-02-12 17:36:00,36.7,29.2,29.73,NNE,13,4.0,5.0,74,0.00,,,0.14,LWC V2.10 B1813,2013-02-12 22:36:00,
2013-02-12 17:41:00,36.6,29.1,29.73,NW,308,1.0,5.0,74,0.00,,,0.14,LWC V2.10 B1813,2013-02-12 22:41:00,
2013-02-12 17:46:00,36.5,29.3,29.72,North,350,2.0,5.0,75,0.00,,,0.14,LWC V2.10 B1813,2013-02-12 22:46:00,
2013-02-12 17:51:00,36.4,29.2,29.72,NNW,346,4.0,4.0,75,0.00,,,0.14,LWC V2.10 B1813,2013-02-12 22:51:00,
2013-02-12 17:56:00,36.2,29.4,29.73,NW,311,4.0,5.0,76,0.00,,,0.14,LWC V2.10 B1813,2013-02-12 22:56:00,
2013-02-12 18:01:00,36.0,29.2,29.73,WSW,248,5.0,8.0,76,0.00,,,0.14,LWC V2.10 B1813,2013-02-12 23:01:00,
2013-02-12 18:06:00,36.1,29.3,29.73,WNW,297,5.0,5.0,76,0.00,,,0.14,LWC V2.10 B1813,2013-02-12 23:06:00,
2013-02-12 18:11:00,36.2,29.1,29.74,NW,322,2.0,12.0,75,0.00,,,0.14,LWC V2.10 B1813,2013-02-12 23:11:00,
2013-02-12 18:16:00,36.3,28.8,29.74,WNW,286,2.0,5.0,74,0.00,,,0.14,LWC V2.10 B1813,2013-02-12 23:16:00,
2013-02-12 18:21:00,36.1,29.0,29.74,WNW,300,1.0,5.0,75,0.00,,,0.14,LWC V2.10 B1813,2013-02-12 23:21:00,
2013-02-12 18:26:00,35.9,29.1,29.75,WSW,252,4.0,6.0,76,0.00,,,0.14,LWC V2.10 B1813,2013-02-12 23:26:00,
2013-02-12 18:31:00,36.1,29.0,29.75,NNE,25,1.0,5.0,75,0.00,,,0.14,LWC V2.10 B1813,2013-02-12 23:31:00,
2013-02-12 18:36:00,36.1,29.0,29.75,NW,312,6.0,6.0,75,0.00,,,0.14,LWC V2.10 B1813,2013-02-12 23:36:00,
2013-02-12 18:41:00,36.0,28.9,29.76,NNW,343,3.0,5.0,75,0.00,,,0.14,LWC V2.10 B1813,2013-02-12 23:41:00,
2013-02-12 18:46:00,35.9,28.8,29.75,NW,311,5.0,10.0,75,0.00,,,0.14,LWC V2.10 B1813,2013-02-12 23:46:00,
2013-02-12 18:51:00,35.8,28.7,29.75,WNW,282,4.0,6.0,75,0.00,,,0.14,LWC V2.10 B1813,2013-02-12 23:51:00,
2013-02-12 18:56:00,35.6,28.8,29.76,NW,318,6.0,10.0,76,0.00,,,0.14,LWC V2.10 B1813,2013-02-12 23:56:00,
2013-02-12 19:01:00,35.6,28.8,29.76,North,10,3.0,11.0,76,0.00,,,0.14,LWC V2.10 B1813,2013-02-13 00:01:00,
2013-02-12 19:06:00,35.6,28.5,29.77,WNW,297,1.0,6.0,75,0.00,,,0.14,LWC V2.10 B1813,2013-02-13 00:06:00,
2013-02-12 19:11:00,35.6,28.5,29.77,WSW,238,5.0,9.0,75,0.00,,,0.14,LWC V2.10 B1813,2013-02-13 00:11:00,
2013-02-12 19:16:00,35.7,28.2,29.78,WNW,290,3.0,9.0,74,0.00,,,0.14,LWC V2.10 B1813,2013-02-13 00:16:00,
2013-02-12 19:21:00,35.8,28.3,29.79,WNW,300,2.0,7.0,74,0.00,,,0.14,LWC V2.10 B1813,2013-02-13 00:21:00,
2013-02-12 19:26:00,35.8,28.3,29.79,WNW,288,3.0,7.0,74,0.00,,,0.14,LWC V2.10 B1813,2013-02-13 00:26:00,
2013-02-12 19:31:00,-999.0,-99.9,-100.00,North,-999,-999.0,10.0,-999,-99.99,,,0.14,LWC V2.10 B1813,2013-02-13 00:31:00,
2013-02-12 19:36:00,35.8,28.0,29.80,North,353,2.0,13.0,73,0.00,,,0.14,LWC V2.10 B1813,2013-02-13 00:36:00,
2013-02-12 19:41:00,35.9,28.1,29.80,NW,317,5.0,5.0,73,0.00,,,0.14,LWC V2.10 B1813,2013-02-13 00:41:00,
2013-02-12 19:46:00,35.8,28.3,29.80,WNW,286,3.0,4.0,74,0.00,,,0.14,LWC V2.10 B1813,2013-02-13 00:46:00,
2013-02-12 19:51:00,35.7,27.9,29.80,West,266,4.0,5.0,73,0.00,,,0.14,LWC V2.10 B1813,2013-02-13 00:51:00,
2013-02-12 19:56:00,35.8,28.3,29.81,West,259,1.0,2.0,74,0.00,,,0.14,LWC V2.10 B1813,2013-02-13 00:56:00,
2013-02-12 20:01:00,35.8,28.3,29.82,South,182,2.0,3.0,74,0.00,,,0.14,LWC V2.10 B1813,2013-02-13 01:01:00,
2013-02-12 20:06:00,35.7,28.2,29.81,NW,305,2.0,3.0,74,0.00,,,0.14,LWC V2.10 B1813,2013-02-13 01:06:00,
2013-02-12 20:11:00,35.7,28.2,29.82,NNW,345,1.0,6.0,74,0.00,,,0.14,LWC V2.10 B1813,2013-02-13 01:11:00,
2013-02-12 20:16:00,35.7,28.6,29.83,NNW,343,2.0,9.0,75,0.00,,,0.14,LWC V2.10 B1813,2013-02-13 01:16:00,
2013-02-12 20:21:00,35.5,28.4,29.84,NW,325,3.0,8.0,75,0.00,,,0.14,LWC V2.10 B1813,2013-02-13 01:21:00,
2013-02-12 20:26:00,35.5,28.4,29.84,West,272,1.0,6.0,75,0.00,,,0.14,LWC V2.10 B1813,2013-02-13 01:26:00,
2013-02-12 20:31:00,35.4,28.3,29.83,West,279,4.0,6.0,75,0.00,,,0.14,LWC V2.10 B1813,2013-02-13 01:31:00,
2013-02-12 20:36:00,35.3,27.9,29.83,West,272,5.0,13.0,74,0.00,,,0.14,LWC V2.10 B1813,2013-02-13 01:36:00,
2013-02-12 20:41:00,35.3,28.2,29.83,WNW,300,2.0,5.0,75,0.00,,,0.14,LWC V2.10 B1813,2013-02-13 01:41:00,
2013-02-12 20:46:00,35.2,27.8,29.83,North,358,3.0,13.0,74,0.00,,,0.14,LWC V2.10 B1813,2013-02-13 01:46:00,
2013-02-12 20:51:00,35.1,28.0,29.83,NE,53,5.0,6.0,75,0.00,,,0.14,LWC V2.10 B1813,2013-02-13 01:51:00,
2013-02-12 20:56:00,35.0,27.6,29.83,NE,41,4.0,7.0,74,0.00,,,0.14,LWC V2.10 B1813,2013-02-13 01:56:00,
2013-02-12 21:01:00,35.0,27.6,29.84,West,272,4.0,10.0,74,0.00,,,0.14,LWC V2.10 B1813,2013-02-13 02:01:00,
2013-02-12 21:06:00,35.0,27.6,29.83,NW,313,2.0,6.0,74,0.00,,,0.14,LWC V2.10 B1813,2013-02-13 02:06:00,
2013-02-12 21:11:00,35.0,27.6,29.83,West,262,2.0,6.0,74,0.00,,,0.14,LWC V2.10 B1813,2013-02-13 02:11:00,
2013-02-12 21:16:00,34.9,27.5,29.83,NW,313,4.0,10.0,74,0.00,,,0.14,LWC V2.10 B1813,2013-02-13 02:16:00,
2013-02-12 21:21:00,34.9,27.1,29.83,WNW,289,9.0,11.0,73,0.00,,,0.14,LWC V2.10 B1813,2013-02-13 02:21:00,
2013-02-12 21:26:00,34.8,27.4,29.82,North,7,2.0,5.0,74,0.00,,,0.14,LWC V2.10 B1813,2013-02-13 02:26:00,
2013-02-12 21:31:00,34.7,27.3,29.81,NNW,343,6.0,8.0,74,0.00,,,0.14,LWC V2.10 B1813,2013-02-13 02:31:00,
2013-02-12 21:36:00,34.7,27.6,29.81,NW,313,5.0,7.0,75,0.00,,,0.14,LWC V2.10 B1813,2013-02-13 02:36:00,
2013-02-12 21:41:00,34.6,27.2,29.81,WNW,296,8.0,9.0,74,0.00,,,0.14,LWC V2.10 B1813,2013-02-13 02:41:00,
2013-02-12 21:46:00,34.7,27.3,29.81,NW,310,1.0,5.0,74,0.00,,,0.14,LWC V2.10 B1813,2013-02-13 02:46:00,
2013-02-12 21:51:00,34.6,27.2,29.81,North,7,2.0,9.0,74,0.00,,,0.14,LWC V2.10 B1813,2013-02-13 02:51:00,
2013-02-12 21:56:00,34.6,27.2,29.81,West,276,4.0,6.0,74,0.00,,,0.14,LWC V2.10 B1813,2013-02-13 02:56:00,
2013-02-12 22:01:00,34.5,27.1,29.80,NW,315,2.0,8.0,74,0.00,,,0.14,LWC V2.10 B1813,2013-02-13 03:01:00,
2013-02-12 22:06:00,34.5,26.8,29.80,SSW,213,10.0,11.0,73,0.00,,,0.14,LWC V2.10 B1813,2013-02-13 03:06:00,
2013-02-12 22:11:00,34.5,27.1,29.80,SSW,213,4.0,6.0,74,0.00,,,0.14,LWC V2.10 B1813,2013-02-13 03:11:00,
2013-02-12 22:16:00,34.5,26.8,29.81,WNW,293,1.0,8.0,73,0.00,,,0.14,LWC V2.10 B1813,2013-02-13 03:16:00,
2013-02-12 22:21:00,34.4,26.7,29.81,NE,40,0.0,4.0,73,0.00,,,0.14,LWC V2.10 B1813,2013-02-13 03:21:00,
2013-02-12 22:26:00,34.4,26.7,29.81,NE,41,1.0,1.0,73,0.00,,,0.14,LWC V2.10 B1813,2013-02-13 03:26:00,
2013-02-12 22:31:00,34.3,26.9,29.81,NNE,26,1.0,1.0,74,0.00,,,0.14,LWC V2.10 B1813,2013-02-13 03:31:00,
2013-02-12 22:36:00,34.2,26.5,29.81,NNW,334,3.0,7.0,73,0.00,,,0.14,LWC V2.10 B1813,2013-02-13 03:36:00,
2013-02-12 22:41:00,34.3,26.2,29.81,WNW,286,1.0,6.0,72,0.00,,,0.14,LWC V2.10 B1813,2013-02-13 03:41:00,
2013-02-12 22:46:00,34.3,26.2,29.80,WNW,301,4.0,4.0,72,0.00,,,0.14,LWC V2.10 B1813,2013-02-13 03:46:00,
2013-02-12 22:51:00,34.3,25.9,29.80,NNW,344,3.0,7.0,71,0.00,,,0.14,LWC V2.10 B1813,2013-02-13 03:51:00,
2013-02-12 22:56:00,34.2,25.8,29.80,NW,318,2.0,5.0,71,0.00,,,0.14,LWC V2.10 B1813,2013-02-13 03:56:00,
2013-02-12 23:01:00,34.1,25.4,29.80,SE,146,2.0,4.0,70,0.00,,,0.14,LWC V2.10 B1813,2013-02-13 04:01:00,
2013-02-12 23:06:00,34.1,25.4,29.80,WNW,299,0.0,2.0,70,0.00,,,0.14,LWC V2.10 B1813,2013-02-13 04:06:00,
2013-02-12 23:11:00,34.0,25.3,29.80,NW,306,1.0,3.0,70,0.00,,,0.14,LWC V2.10 B1813,2013-02-13 04:11:00,
2013-02-12 23:16:00,34.0,24.9,29.80,WNW,293,3.0,3.0,69,0.00,,,0.14,LWC V2.10 B1813,2013-02-13 04:16:00,
2013-02-12 23:21:00,34.0,24.9,29.80,North,355,0.0,2.0,69,0.00,,,0.14,LWC V2.10 B1813,2013-02-13 04:21:00,
2013-02-12 23:26:00,34.0,24.9,29.80,WNW,298,0.0,3.0,69,0.00,,,0.14,LWC V2.10 B1813,2013-02-13 04:26:00,
2013-02-12 23:31:00,33.9,24.8,29.81,WSW,238,1.0,3.0,69,0.00,,,0.14,LWC V2.10 B1813,2013-02-13 04:31:00,
2013-02-12 23:36:00,33.9,24.8,29.81,NNW,328,2.0,3.0,69,0.00,,,0.14,LWC V2.10 B1813,2013-02-13 04:36:00,
2013-02-12 23:41:00,33.8,24.7,29.81,West,270,3.0,5.0,69,0.00,,,0.14,LWC V2.10 B1813,2013-02-13 04:41:00,
2013-02-12 23:46:00,33.8,24.7,29.81,NW,313,4.0,5.0,69,0.00,,,0.14,LWC V2.10 B1813,2013-02-13 04:46:00,
2013-02-12 23:51:00,33.8,25.1,29.81,NNW,343,2.0,4.0,70,0.00,,,0.14,LWC V2.10 B1813,2013-02-13 04:51:00,
2013-02-12 23:56:00,33.8,24.7,29.81,WNW,290,1.0,4.0,69,0.00,,,0.14,LWC V2.10 B1813,2013-02-13 04:56:00,